| Date | Time | Temp. (oF) | Dew Point (oF) | Rel. Hum. (%) | Press. (in.) | Wind Dir. | Wind Speed (mph) | Hourly Rainfall (in.) |
|
|---|---|---|---|---|---|---|---|---|---|
| 1 | 06/09 | 00:00 | 76 | 66 | 73 | 30.01 | SSE | 2 | 0.00 |
| 2 | 06/08 | 23:00 | 78 | 67 | 71 | 30.00 | S | 3 | 0.00 |
| 3 | 06/08 | 22:00 | 80 | 69 | 70 | 29.99 | SSE | 2 | 0.00 |
| 4 | 06/08 | 21:00 | 82 | 68 | 64 | 29.96 | S | 5 | 0.00 |
| 5 | 06/08 | 20:00 | 85 | 69 | 61 | 29.94 | S | 4 | 0.00 |
| 6 | 06/08 | 19:00 | 87 | 68 | 55 | 29.93 | S | 6 | 0.00 |
| 7 | 06/08 | 18:00 | 88 | 68 | 53 | 29.93 | S | 10 | 0.00 |
| 8 | 06/08 | 17:00 | 88 | 69 | 54 | 29.94 | SSE | 5 | 0.00 |
| 9 | 06/08 | 16:00 | 88 | 70 | 56 | 29.95 | S | 1 | 0.00 |
| 10 | 06/08 | 15:00 | 92 | 69 | 48 | 29.94 | S | 3 | 0.00 |
| 11 | 06/08 | 14:00 | 92 | 67 | 45 | 29.95 | SSW | 8 | 0.00 |
| 12 | 06/08 | 13:00 | 91 | 71 | 53 | 29.96 | S | 4 | 0.00 |
| 13 | 06/08 | 12:00 | 88 | 69 | 55 | 29.97 | ESE | 4 | 0.00 |
| 14 | 06/08 | 11:00 | 85 | 70 | 62 | 29.98 | SW | 3 | 0.00 |
| 15 | 06/08 | 10:00 | 82 | 71 | 70 | 29.98 | NW | 3 | 0.00 |
| 16 | 06/08 | 09:00 | 78 | 71 | 81 | 29.97 | ESE | 1 | 0.00 |
| 17 | 06/08 | 08:00 | 71 | 70 | 97 | 29.97 | N | 0 | 0.00 |
| 18 | 06/08 | 07:00 | 67 | 65 | 94 | 29.96 | WNW | 0 | 0.00 |
| 19 | 06/08 | 06:00 | 68 | 65 | 92 | 29.96 | WNW | 0 | 0.00 |
| 20 | 06/08 | 05:00 | 69 | 65 | 89 | 29.95 | WNW | 0 | 0.00 |
| 21 | 06/08 | 04:00 | 72 | 66 | 84 | 29.92 | WNW | 0 | 0.00 |
| 22 | 06/08 | 03:00 | 74 | 67 | 81 | 29.92 | WNW | 1 | 0.00 |
| 23 | 06/08 | 02:00 | 75 | 67 | 78 | 29.92 | WSW | 2 | 0.00 |
| 24 | 06/08 | 01:00 | 76 | 68 | 77 | 29.92 | WSW | 1 | 0.00 |